createdAt,value
2023-04-12T00:00:12.160Z,4.70
2023-04-12T00:05:14.400Z,4.60
2023-04-12T00:10:16.532Z,3.80
2023-04-12T00:15:18.433Z,4.30
2023-04-12T00:20:20.427Z,3.70
2023-04-12T00:25:22.364Z,3.60
2023-04-12T00:30:24.554Z,3.30
2023-04-12T00:35:26.474Z,3.60
2023-04-12T00:40:28.437Z,3.60
2023-04-12T00:45:32.157Z,3.90
2023-04-12T00:50:37.298Z,3.80
2023-04-12T00:55:42.158Z,3.30
2023-04-12T01:00:50.129Z,3.70
2023-04-12T01:06:32.277Z,4.30
2023-04-12T01:12:08.911Z,5.50
2023-04-12T01:17:21.103Z,6.30
2023-04-12T01:22:33.488Z,6.00
2023-04-12T01:27:42.365Z,5.70
2023-04-12T01:32:47.837Z,6.10
2023-04-12T01:37:49.934Z,5.10
2023-04-12T01:42:52.143Z,4.80
2023-04-12T01:47:56.425Z,4.80
2023-04-12T01:53:18.546Z,4.70
2023-04-12T01:58:22.392Z,5.20
2023-04-12T02:03:24.819Z,4.40
2023-04-12T02:08:27.126Z,4.80
2023-04-12T02:13:29.208Z,4.80
2023-04-12T02:18:31.447Z,4.50
2023-04-12T02:23:33.699Z,4.80
2023-04-12T02:28:37.390Z,5.60
2023-04-12T02:33:41.335Z,5.10
2023-04-12T02:38:44.291Z,5.30
2023-04-12T02:43:46.965Z,5.30
2023-04-12T02:48:49.359Z,5.40
2023-04-12T02:53:52.808Z,5.90
2023-04-12T02:58:57.689Z,5.10
2023-04-12T03:04:11.231Z,5.80
2023-04-12T03:09:20.512Z,5.70
2023-04-12T03:14:22.597Z,6.00
2023-04-12T03:19:24.956Z,6.30
2023-04-12T03:24:30.041Z,6.10
2023-04-12T03:29:32.434Z,6.50
2023-04-12T03:34:35.558Z,6.90
2023-04-12T03:39:47.896Z,3.60
2023-04-12T03:44:54.018Z,6.70
2023-04-12T03:55:09.840Z,6.50
2023-04-12T04:00:13.880Z,5.60
2023-04-12T04:05:33.557Z,6.10
2023-04-12T04:10:36.390Z,5.80
2023-04-12T04:15:38.795Z,6.50
2023-04-12T04:20:40.608Z,6.20
2023-04-12T04:25:45.018Z,5.60
2023-04-12T04:30:48.617Z,6.30
2023-04-12T04:35:52.403Z,7.40
2023-04-12T04:40:59.873Z,9.60
2023-04-12T04:46:08.118Z,8.70
2023-04-12T04:51:10.218Z,9.30
2023-04-12T04:56:12.395Z,9.00
2023-04-12T05:01:16.946Z,7.30
2023-04-12T05:06:20.044Z,4.90
2023-04-12T05:11:22.076Z,7.80
2023-04-12T05:16:24.733Z,6.80
2023-04-12T05:21:27.325Z,7.90
2023-04-12T05:26:29.439Z,7.40
2023-04-12T05:31:33.045Z,7.60
2023-04-12T05:36:37.874Z,7.50
2023-04-12T05:41:39.636Z,8.30
2023-04-12T05:46:41.700Z,8.60
2023-04-12T05:51:43.750Z,8.00
2023-04-12T05:56:57.293Z,8.60
2023-04-12T06:02:00.721Z,7.90
2023-04-12T06:07:05.649Z,11.00
2023-04-12T06:12:07.471Z,6.70
2023-04-12T06:17:11.374Z,6.90
2023-04-12T06:22:15.717Z,7.10
2023-04-12T06:27:20.685Z,6.90
2023-04-12T06:32:23.013Z,6.60
2023-04-12T06:37:27.065Z,6.20
2023-04-12T06:42:28.834Z,6.10
2023-04-12T06:47:32.331Z,5.80
2023-04-12T06:52:34.234Z,7.20
2023-04-12T06:57:36.186Z,7.00
2023-04-12T07:02:39.058Z,6.40
2023-04-12T07:07:41.251Z,7.10
2023-04-12T07:12:43.028Z,6.90
2023-04-12T07:17:45.368Z,6.40
2023-04-12T07:22:47.217Z,5.70
2023-04-12T07:27:51.568Z,6.10
2023-04-12T07:32:58.434Z,5.90
2023-04-12T07:38:04.644Z,6.40
2023-04-12T07:43:06.497Z,7.50
2023-04-12T07:48:08.588Z,6.00
2023-04-12T07:53:22.302Z,5.60
2023-04-12T07:58:25.059Z,6.40
2023-04-12T08:03:27.288Z,6.70
2023-04-12T08:08:29.516Z,5.00
2023-04-12T08:13:31.498Z,5.00
2023-04-12T08:18:33.548Z,4.90
2023-04-12T08:23:35.376Z,5.30
2023-04-12T08:28:39.710Z,5.10
2023-04-12T08:33:41.835Z,6.70
2023-04-12T08:38:46.057Z,3.90
2023-04-12T08:43:48.900Z,3.20
2023-04-12T08:48:56.241Z,2.80
2023-04-12T08:53:59.364Z,3.80
2023-04-12T08:59:03.044Z,3.70
2023-04-12T09:04:08.311Z,3.10
2023-04-12T09:09:11.221Z,3.00
2023-04-12T09:14:24.075Z,2.60
2023-04-12T09:19:41.141Z,3.00
2023-04-12T09:24:50.614Z,3.10
2023-04-12T09:30:06.975Z,2.70
2023-04-12T09:35:09.783Z,2.50
2023-04-12T09:40:13.053Z,2.30
2023-04-12T09:45:24.409Z,2.60
2023-04-12T09:50:33.639Z,2.50
2023-04-12T09:55:35.910Z,2.40
2023-04-12T10:00:38.648Z,2.30
2023-04-12T10:05:42.355Z,1.80
2023-04-12T10:10:46.481Z,1.70
2023-04-12T10:15:51.033Z,1.70
2023-04-12T10:20:53.650Z,1.70
2023-04-12T10:25:57.112Z,1.40
2023-04-12T10:31:00.747Z,1.40
2023-04-12T10:36:06.911Z,1.30
2023-04-12T10:41:16.447Z,2.00
2023-04-12T10:46:40.257Z,1.80
2023-04-12T10:52:21.260Z,1.70
2023-04-12T11:03:08.916Z,2.10
2023-04-12T11:08:12.290Z,1.70
2023-04-12T11:13:15.010Z,1.50
2023-04-12T11:18:17.617Z,1.90
2023-04-12T11:23:19.789Z,1.40
2023-04-12T11:28:28.717Z,1.40
2023-04-12T11:33:39.816Z,1.60
2023-04-12T11:43:45.350Z,1.70
2023-04-12T11:48:47.248Z,2.00
2023-04-12T11:53:53.789Z,1.80
2023-04-12T11:58:55.892Z,1.60
2023-04-12T12:04:02.737Z,1.60
2023-04-12T12:09:06.213Z,1.60
2023-04-12T12:14:08.613Z,1.70
2023-04-12T12:19:10.535Z,1.80
2023-04-12T12:24:14.827Z,1.80
2023-04-12T12:29:22.062Z,2.00
2023-04-12T12:34:24.767Z,2.00
2023-04-12T12:39:26.909Z,1.70
2023-04-12T12:44:29.346Z,2.00
2023-04-12T12:49:31.359Z,2.10
2023-04-12T12:54:41.159Z,2.20
2023-04-12T12:59:44.208Z,2.60
2023-04-12T13:04:47.262Z,2.20
2023-04-12T13:09:49.749Z,2.20
2023-04-12T13:14:57.910Z,2.40
2023-04-12T13:20:07.046Z,2.60
2023-04-12T13:25:10.003Z,2.30
2023-04-12T13:30:12.003Z,2.30
2023-04-12T13:35:14.814Z,2.50
2023-04-12T13:40:17.182Z,2.70
2023-04-12T13:45:19.104Z,2.60
2023-04-12T13:50:21.027Z,2.30
2023-04-12T13:55:23.130Z,2.70
2023-04-12T14:00:25.170Z,2.60
2023-04-12T14:05:27.455Z,2.40
2023-04-12T14:10:29.402Z,3.10
2023-04-12T14:15:31.307Z,2.90
2023-04-12T14:20:33.143Z,2.50
2023-04-12T14:25:37.549Z,2.70
2023-04-12T14:30:39.377Z,3.10
2023-04-12T14:35:41.516Z,3.40
2023-04-12T14:40:43.785Z,3.20
2023-04-12T14:45:45.747Z,3.00
2023-04-12T14:50:47.927Z,3.30
2023-04-12T14:55:49.834Z,3.60
2023-04-12T15:00:51.763Z,3.70
2023-04-12T15:05:54.170Z,3.50
2023-04-12T15:10:56.069Z,3.60
2023-04-12T15:15:58.785Z,4.00
2023-04-12T15:21:03.086Z,3.90
2023-04-12T15:26:09.189Z,3.90
2023-04-12T15:31:12.052Z,3.40
2023-04-12T15:36:16.873Z,3.70
2023-04-12T15:41:19.262Z,3.60
2023-04-12T15:46:21.635Z,3.90
2023-04-12T15:51:24.115Z,3.60
2023-04-12T15:56:26.505Z,3.80
2023-04-12T16:01:28.662Z,3.60
2023-04-12T16:06:34.764Z,3.30
2023-04-12T16:11:36.682Z,4.10
2023-04-12T16:16:40.484Z,3.60
2023-04-12T16:21:44.577Z,4.00
2023-04-12T16:26:48.108Z,4.10
2023-04-12T16:31:51.757Z,3.60
2023-04-12T16:36:53.934Z,3.50
2023-04-12T16:41:56.178Z,3.50
2023-04-12T16:46:58.295Z,3.30
2023-04-12T16:52:01.515Z,3.40
2023-04-12T16:57:04.161Z,3.60
2023-04-12T17:02:07.852Z,3.60
2023-04-12T17:07:11.185Z,3.80
2023-04-12T17:12:13.037Z,4.60
2023-04-12T17:17:15.518Z,7.80
2023-04-12T17:22:19.330Z,12.20
2023-04-12T17:27:22.247Z,12.50
2023-04-12T17:32:24.128Z,10.50
2023-04-12T17:37:27.877Z,10.10
2023-04-12T17:42:30.047Z,10.70
2023-04-12T17:47:35.703Z,13.80
2023-04-12T17:52:37.904Z,11.60
2023-04-12T17:57:42.180Z,60.40
2023-04-12T18:02:46.176Z,12.20
2023-04-12T18:07:48.763Z,12.10
2023-04-12T18:12:51.149Z,11.80
2023-04-12T18:17:53.375Z,12.30
2023-04-12T18:22:55.300Z,10.80
2023-04-12T18:27:57.576Z,12.00
2023-04-12T18:33:00.984Z,27.80
2023-04-12T18:38:05.237Z,12.20
2023-04-12T18:43:08.210Z,13.90
2023-04-12T18:48:10.896Z,20.30
2023-04-12T18:53:13.030Z,24.30
2023-04-12T18:58:16.572Z,22.80
2023-04-12T19:03:18.951Z,22.80
2023-04-12T19:08:22.605Z,22.90
2023-04-12T19:13:24.563Z,23.50
2023-04-12T19:18:30.288Z,25.60
2023-04-12T19:23:35.304Z,26.10
2023-04-12T19:28:38.023Z,24.70
2023-04-12T19:33:41.528Z,25.30
2023-04-12T19:38:44.243Z,28.40
2023-04-12T19:43:48.243Z,29.70
2023-04-12T19:48:51.387Z,27.00
2023-04-12T19:53:54.881Z,32.00
2023-04-12T19:58:58.147Z,22.90
2023-04-12T20:04:00.334Z,22.60
2023-04-12T20:09:02.883Z,21.40
2023-04-12T20:14:08.365Z,21.80
2023-04-12T20:19:10.419Z,19.20
2023-04-12T20:24:12.924Z,21.00
2023-04-12T20:29:16.365Z,22.70
2023-04-12T20:34:19.293Z,25.70
2023-04-12T20:39:23.235Z,26.10
2023-04-12T20:44:27.905Z,26.10
2023-04-12T20:49:31.193Z,23.70
2023-04-12T20:54:34.202Z,20.10
2023-04-12T20:59:36.296Z,19.90
2023-04-12T21:04:41.308Z,22.90
2023-04-12T21:09:44.375Z,22.50
2023-04-12T21:15:11.850Z,23.90
2023-04-12T21:20:14.087Z,22.30
2023-04-12T21:25:17.139Z,29.60
2023-04-12T21:30:19.169Z,31.00
2023-04-12T21:35:26.308Z,26.00
2023-04-12T21:40:28.689Z,20.60
2023-04-12T21:45:50.693Z,21.90
2023-04-12T21:50:54.545Z,26.10
2023-04-12T21:55:57.232Z,25.10
2023-04-12T22:00:59.264Z,21.90
2023-04-12T22:06:04.766Z,20.10
2023-04-12T22:11:07.593Z,20.80
2023-04-12T22:16:13.950Z,20.50
2023-04-12T22:21:16.596Z,26.60
2023-04-12T22:26:18.431Z,23.30
2023-04-12T22:31:22.960Z,25.70
2023-04-12T22:36:28.636Z,27.60
2023-04-12T22:41:32.983Z,26.30
2023-04-12T22:46:39.405Z,27.30
2023-04-12T22:51:42.766Z,28.40
2023-04-12T22:56:47.774Z,28.30
2023-04-12T23:01:50.362Z,31.30
2023-04-12T23:06:56.899Z,32.20
2023-04-12T23:12:00.246Z,28.60
2023-04-12T23:17:03.437Z,31.40
2023-04-12T23:22:06.208Z,31.60
2023-04-12T23:27:07.991Z,33.70
2023-04-12T23:32:10.489Z,32.80
2023-04-12T23:37:12.775Z,34.00
2023-04-12T23:42:23.687Z,34.20
2023-04-12T23:47:26.066Z,32.60
2023-04-12T23:52:48.465Z,35.10
2023-04-12T23:57:50.310Z,33.40
